Time;durP1;ratioP1;P1;durP2;ratioP2;P2;SDS_P1;SDS_P2;PMS_P1;PMS_P2;Temp;Humidity;BMP_temperature;BMP_pressure;BME280_temperature;BME280_humidity;BME280_pressure;Samples;Min_cycle;Max_cycle;Signal;HPM_P1;HPM_P2
2022/10/01 00:03:09;;;;;;;10.50;8.23;;;;;;;12.45;60.86;98496.91;7002560;28;20269;-85
2022/10/01 00:06:31;;;;;;;8.60;7.70;;;;;;;12.14;61.30;98486.19;7002306;28;20347;-85
2022/10/01 00:09:52;;;;;;;9.10;7.63;;;;;;;12.70;60.85;98508.50;7001187;28;20286;-85
2022/10/01 00:13:14;;;;;;;9.37;7.80;;;;;;;12.57;60.48;98509.44;7002581;28;20331;-86
2022/10/01 00:16:35;;;;;;;11.87;7.47;;;;;;;12.34;61.47;98506.56;7006679;28;20213;-85
2022/10/01 00:19:58;;;;;;;11.97;7.77;;;;;;;12.43;61.58;98510.66;7005516;28;20282;-85
2022/10/01 00:23:20;;;;;;;12.90;7.30;;;;;;;12.85;60.68;98490.81;7006285;28;20296;-86
2022/10/01 00:26:44;;;;;;;9.77;7.80;;;;;;;12.74;61.16;98486.16;7006560;28;20264;-85
2022/10/01 00:30:07;;;;;;;7.57;6.83;;;;;;;13.14;60.32;98460.28;7005523;28;20296;-85
2022/10/01 00:33:28;;;;;;;8.47;6.87;;;;;;;13.33;60.46;98493.56;7006111;28;20261;-85
2022/10/01 00:36:51;;;;;;;8.77;7.33;;;;;;;12.53;60.60;98419.03;7006102;28;20739;-85
2022/10/01 00:40:13;;;;;;;10.57;8.50;;;;;;;12.43;61.63;98462.00;7005041;28;20674;-86
2022/10/01 00:43:36;;;;;;;12.00;8.07;;;;;;;12.77;61.23;98483.03;7005593;28;20258;-85
2022/10/01 00:47:03;;;;;;;10.60;7.77;;;;;;;12.89;60.71;98473.09;7005712;28;20213;-85
2022/10/01 00:50:27;;;;;;;8.53;7.50;;;;;;;12.89;62.11;98464.97;7005118;28;20328;-85
2022/10/01 00:53:50;;;;;;;9.83;6.47;;;;;;;13.53;60.32;98473.25;7005555;28;20206;-85
2022/10/01 00:57:14;;;;;;;8.93;6.73;;;;;;;13.47;59.96;98476.03;7005614;28;20233;-85
2022/10/01 01:00:36;;;;;;;6.83;5.97;;;;;;;13.63;60.15;98465.34;7004169;28;20209;-85
2022/10/01 01:03:57;;;;;;;7.17;6.00;;;;;;;13.57;60.85;98481.72;7005246;28;20296;-85
2022/10/01 01:07:19;;;;;;;6.33;5.73;;;;;;;13.65;60.68;98462.44;7005564;28;20359;-85
2022/10/01 01:10:47;;;;;;;6.37;5.77;;;;;;;13.93;59.88;98489.69;7004616;28;20730;-85
2022/10/01 01:14:14;;;;;;;7.93;5.90;;;;;;;13.80;59.61;98460.09;7005514;28;20194;-85
2022/10/01 01:17:43;;;;;;;7.67;6.17;;;;;;;13.90;59.89;98477.44;7004185;28;20234;-85
2022/10/01 01:21:14;;;;;;;6.20;5.60;;;;;;;13.93;60.28;98482.38;7005039;28;20213;-85
2022/10/01 01:24:43;;;;;;;7.27;5.57;;;;;;;13.98;59.51;98465.44;7004563;28;20285;-85
2022/10/01 01:28:14;;;;;;;7.33;5.90;;;;;;;14.02;59.28;98472.00;7004190;28;20307;-85
2022/10/01 01:31:37;;;;;;;6.33;5.73;;;;;;;14.00;59.50;98468.72;7004546;28;20324;-85
2022/10/01 01:35:01;;;;;;;6.57;5.87;;;;;;;13.84;59.60;98445.00;7004398;28;20209;-86
2022/10/01 01:38:26;;;;;;;6.30;5.70;;;;;;;14.04;59.55;98465.28;7004043;28;20263;-85
2022/10/01 01:41:52;;;;;;;5.60;5.10;;;;;;;14.02;59.04;98445.75;7004783;28;20595;-85
2022/10/01 01:45:18;;;;;;;5.20;4.80;;;;;;;14.05;59.49;98450.69;7004285;28;20645;-85
2022/10/01 01:48:40;;;;;;;6.33;5.73;;;;;;;13.94;59.70;98420.88;7003213;28;20220;-85
2022/10/01 01:52:05;;;;;;;6.10;5.50;;;;;;;13.95;59.49;98426.06;7003809;28;20544;-85
2022/10/01 01:55:28;;;;;;;6.17;5.50;;;;;;;13.99;59.73;98424.50;7003825;28;20817;-85
2022/10/01 01:58:50;;;;;;;7.10;5.00;;;;;;;13.82;59.14;98384.81;7003045;28;20267;-85
2022/10/01 02:02:15;;;;;;;5.10;4.70;;;;;;;13.95;58.92;98382.69;7002567;28;20227;-85
2022/10/01 02:05:42;;;;;;;5.70;4.80;;;;;;;14.29;58.67;98416.28;7003866;28;20210;-85
2022/10/01 02:09:10;;;;;;;7.13;4.53;;;;;;;14.07;59.22;98420.63;7003196;28;20219;-85
2022/10/01 02:12:40;;;;;;;5.33;4.83;;;;;;;14.08;59.54;98409.56;7003435;28;20185;-84
2022/10/01 02:16:07;;;;;;;5.80;5.20;;;;;;;14.33;58.60;98401.19;7003588;28;20581;-85
2022/10/01 02:19:36;;;;;;;5.53;4.97;;;;;;;14.48;57.90;98412.34;7002470;28;20233;-85
2022/10/01 02:23:00;;;;;;;6.37;4.90;;;;;;;14.67;57.34;98411.13;7003080;28;20792;-85
2022/10/01 02:26:23;;;;;;;6.20;5.60;;;;;;;14.37;58.27;98402.34;7002898;28;20238;-85
2022/10/01 02:29:47;;;;;;;6.70;6.00;;;;;;;14.38;58.35;98414.84;7002655;28;20278;-85
2022/10/01 02:33:10;;;;;;;6.30;5.70;;;;;;;14.10;59.24;98423.69;7003120;28;20235;-84
2022/10/01 02:36:35;;;;;;;6.70;6.10;;;;;;;14.10;58.72;98410.13;7002424;28;20199;-85
2022/10/01 02:39:57;;;;;;;6.23;5.63;;;;;;;14.15;58.88;98412.16;7002210;28;20316;-85
2022/10/01 02:43:22;;;;;;;6.03;5.17;;;;;;;13.91;58.76;98372.53;7004979;28;20260;-85
2022/10/01 02:46:47;;;;;;;8.63;5.17;;;;;;;13.88;59.17;98411.81;7006823;28;20213;-85
2022/10/01 02:50:09;;;;;;;5.37;4.87;;;;;;;13.94;59.26;98418.16;7002323;28;20225;-85
2022/10/01 02:53:37;;;;;;;5.97;5.37;;;;;;;13.94;59.04;98419.00;7002229;28;20819;-85
2022/10/01 03:00:38;;;;;;;7.27;4.73;;;;;;;13.83;59.52;98408.97;7001191;28;20213;-86
2022/10/01 03:03:59;;;;;;;5.03;4.57;;;;;;;14.00;59.00;98403.66;7002511;28;20345;-84
2022/10/01 03:07:21;;;;;;;6.63;5.13;;;;;;;14.11;58.44;98375.72;7002343;28;20510;-85
2022/10/01 03:10:44;;;;;;;4.63;4.20;;;;;;;14.28;57.80;98406.50;7002222;28;20291;-85
2022/10/01 03:14:06;;;;;;;5.10;4.60;;;;;;;14.45;57.26;98396.56;7002435;28;20226;-85
2022/10/01 03:17:27;;;;;;;6.93;5.07;;;;;;;14.41;56.64;98384.53;7002445;28;20312;-85
2022/10/01 03:20:49;;;;;;;5.30;4.67;;;;;;;14.29;56.80;98387.25;7001828;28;20743;-85
2022/10/01 03:24:10;;;;;;;5.90;5.03;;;;;;;14.22;57.11;98402.03;7001861;28;20340;-86
2022/10/01 03:27:33;;;;;;;6.07;4.80;;;;;;;13.92;57.18;98333.56;7001593;28;20288;-86
2022/10/01 03:31:04;;;;;;;5.67;5.07;;;;;;;13.82;58.24;98390.25;7002516;28;20779;-85
2022/10/01 03:34:26;;;;;;;6.30;5.30;;;;;;;13.89;58.15;98371.97;7002293;28;20259;-85
2022/10/01 03:37:48;;;;;;;6.53;4.93;;;;;;;13.81;58.78;98383.19;7001364;28;20320;-85
2022/10/01 03:41:09;;;;;;;7.03;5.23;;;;;;;13.81;58.74;98377.75;7001845;28;20233;-85
2022/10/01 03:44:32;;;;;;;4.80;4.30;;;;;;;13.96;58.23;98392.47;7002123;28;20292;-85
2022/10/01 03:47:54;;;;;;;4.40;4.00;;;;;;;14.22;57.86;98388.47;7002238;28;20303;-85
2022/10/01 03:51:19;;;;;;;5.03;4.60;;;;;;;14.14;57.29;98376.06;7007411;28;20304;-85
2022/10/01 03:54:41;;;;;;;5.20;4.70;;;;;;;14.03;57.97;98371.50;7006767;28;20178;-85
2022/10/01 03:58:02;;;;;;;6.63;5.63;;;;;;;14.13;57.86;98360.03;7006294;28;20375;-85
2022/10/01 04:01:27;;;;;;;6.43;5.63;;;;;;;13.39;59.40;98349.91;7005576;28;20194;-86
2022/10/01 04:04:48;;;;;;;6.10;5.50;;;;;;;13.33;60.02;98360.88;7008310;28;20300;-85
2022/10/01 04:08:10;;;;;;;6.57;4.90;;;;;;;13.74;59.92;98369.72;7007578;28;20230;-85
2022/10/01 04:11:32;;;;;;;6.60;5.53;;;;;;;13.41;60.39;98368.66;7006409;28;20411;-85
2022/10/01 04:14:53;;;;;;;6.77;6.07;;;;;;;13.35;60.37;98345.22;7006995;28;20327;-85
2022/10/01 04:18:18;;;;;;;5.70;5.10;;;;;;;13.46;60.16;98363.38;7005480;28;20308;-85
2022/10/01 04:21:40;;;;;;;5.13;4.50;;;;;;;13.52;59.40;98357.81;7006165;28;20236;-85
2022/10/01 04:25:02;;;;;;;4.80;4.40;;;;;;;13.51;58.58;98323.69;7005808;28;20205;-85
2022/10/01 04:28:24;;;;;;;5.57;4.03;;;;;;;13.87;57.90;98355.94;7005702;28;20314;-85
2022/10/01 04:31:45;;;;;;;4.37;4.00;;;;;;;13.76;58.35;98350.53;7006266;28;20296;-84
2022/10/01 04:35:10;;;;;;;6.43;4.43;;;;;;;13.66;58.37;98340.28;7000194;28;20680;-85
2022/10/01 04:38:32;;;;;;;3.60;3.30;;;;;;;13.66;58.20;98350.28;6977822;28;20234;-85
2022/10/01 04:41:53;;;;;;;3.27;2.97;;;;;;;13.91;57.04;98308.34;6978806;28;20270;-84
2022/10/01 04:45:15;;;;;;;3.17;2.97;;;;;;;13.90;57.19;98331.09;6977978;28;20213;-85
2022/10/01 04:48:36;;;;;;;3.20;2.90;;;;;;;14.34;55.55;98335.03;6986329;28;20282;-85
2022/10/01 04:51:59;;;;;;;8.10;4.30;;;;;;;13.99;56.76;98366.78;7004970;28;20263;-86
2022/10/01 04:55:22;;;;;;;5.20;4.70;;;;;;;13.37;59.00;98349.34;7012384;28;20210;-85
2022/10/01 04:58:43;;;;;;;6.50;5.33;;;;;;;13.46;59.09;98349.81;7003145;28;20230;-85
2022/10/01 05:02:05;;;;;;;5.80;5.23;;;;;;;12.62;60.79;98330.31;7002897;28;20270;-85
2022/10/01 05:05:28;;;;;;;6.40;5.53;;;;;;;13.29;59.16;98351.56;7004797;28;20212;-85
2022/10/01 05:08:51;;;;;;;5.20;3.90;;;;;;;13.89;57.71;98339.44;7004629;28;20672;-85
2022/10/01 05:12:12;;;;;;;4.30;3.90;;;;;;;14.05;56.55;98349.56;7006765;28;20292;-85
2022/10/01 05:15:34;;;;;;;3.73;3.43;;;;;;;14.05;55.90;98338.72;7007481;28;20517;-85
2022/10/01 05:18:56;;;;;;;4.00;3.60;;;;;;;14.19;55.89;98356.41;7006002;28;20236;-85
2022/10/01 05:22:18;;;;;;;5.60;4.07;;;;;;;13.98;56.92;98344.25;7007076;28;20371;-85
2022/10/01 05:25:41;;;;;;;3.70;3.40;;;;;;;14.02;56.79;98350.03;7008051;28;20213;-86
2022/10/01 05:29:03;;;;;;;4.40;3.20;;;;;;;13.97;56.38;98348.03;7014615;28;20221;-86
2022/10/01 05:32:24;;;;;;;2.90;2.70;;;;;;;14.18;54.82;98347.44;7007852;28;20351;-85
2022/10/01 05:35:46;;;;;;;4.63;4.13;;;;;;;14.44;55.25;98343.38;7010098;28;20226;-82
2022/10/01 05:39:08;;;;;;;3.30;3.00;;;;;;;13.95;56.53;98324.94;7006524;28;20225;-82
2022/10/01 05:42:31;;;;;;;2.77;2.57;;;;;;;14.44;57.07;98348.78;7007846;28;20203;-79
2022/10/01 05:45:52;;;;;;;3.67;2.57;;;;;;;14.76;53.71;98323.66;7007064;28;20261;-83
2022/10/01 05:49:14;;;;;;;2.23;2.13;;;;;;;14.88;51.99;98332.59;7006254;28;20283;-79
2022/10/01 05:52:39;;;;;;;2.00;1.90;;;;;;;14.66;51.46;98304.50;7004177;28;20204;-80
2022/10/01 05:56:01;;;;;;;3.43;2.03;;;;;;;14.99;51.59;98328.16;7004504;28;20281;-78
2022/10/01 05:59:25;;;;;;;5.70;1.90;;;;;;;14.95;51.55;98306.13;7002325;28;20218;-80
2022/10/01 06:02:50;;;;;;;2.57;2.20;;;;;;;15.28;50.62;98306.13;7004438;28;20673;-80
2022/10/01 06:06:11;;;;;;;1.93;1.83;;;;;;;14.98;51.27;98307.50;7004826;28;20352;-79
2022/10/01 06:09:33;;;;;;;7.90;2.03;;;;;;;14.94;50.50;98295.50;7003330;28;20316;-79
2022/10/01 06:12:59;;;;;;;2.03;1.93;;;;;;;15.30;50.42;98298.56;7002935;28;20674;-80
2022/10/01 06:16:22;;;;;;;1.80;1.70;;;;;;;15.12;50.43;98285.22;7004730;28;20211;-82
2022/10/01 06:19:43;;;;;;;2.03;1.93;;;;;;;15.30;50.92;98297.72;7004271;28;20260;-81
2022/10/01 06:23:08;;;;;;;2.03;1.93;;;;;;;14.92;50.96;98271.28;7004241;28;20285;-82
2022/10/01 06:26:30;;;;;;;2.20;2.10;;;;;;;15.34;50.63;98275.28;7004123;28;20235;-82
2022/10/01 06:29:51;;;;;;;2.50;2.30;;;;;;;15.42;50.81;98274.03;7004135;28;20374;-82
2022/10/01 06:33:16;;;;;;;2.30;2.10;;;;;;;15.53;51.28;98259.56;7008018;28;20196;-82
2022/10/01 06:36:37;;;;;;;2.93;2.17;;;;;;;15.80;50.26;98230.59;7004199;28;20260;-82
2022/10/01 06:39:59;;;;;;;2.33;2.13;;;;;;;15.55;50.64;98214.75;7002536;28;20560;-81
2022/10/01 06:43:21;;;;;;;2.97;2.10;;;;;;;15.40;51.69;98273.47;7005277;28;20273;-80
2022/10/01 06:46:42;;;;;;;2.43;2.23;;;;;;;15.28;53.35;98257.22;7002588;28;20276;-81
2022/10/01 06:50:06;;;;;;;2.10;1.90;;;;;;;15.14;53.42;98264.06;7001472;28;20288;-81
2022/10/01 06:53:28;;;;;;;2.60;2.10;;;;;;;15.26;52.65;98261.25;7000329;28;20284;-81
2022/10/01 06:56:49;;;;;;;2.43;2.23;;;;;;;15.24;53.57;98249.84;7001631;28;20195;-81
2022/10/01 07:00:12;;;;;;;3.20;2.30;;;;;;;15.35;53.75;98248.94;7000723;28;20299;-81
2022/10/01 07:03:34;;;;;;;3.57;2.20;;;;;;;15.27;53.39;98209.41;7003029;28;20268;-82
2022/10/01 07:06:57;;;;;;;2.43;2.23;;;;;;;15.29;54.00;98256.16;7001667;28;20293;-80
2022/10/01 07:10:20;;;;;;;2.40;2.20;;;;;;;14.96;54.59;98239.06;7001285;28;20317;-81
2022/10/01 07:13:42;;;;;;;2.30;2.20;;;;;;;15.08;54.40;98265.06;7001147;28;20345;-81
2022/10/01 07:17:03;;;;;;;2.03;1.90;;;;;;;14.84;55.21;98257.31;7000753;28;20734;-81
2022/10/01 07:20:25;;;;;;;2.30;2.10;;;;;;;14.68;54.73;98225.56;6998184;28;20225;-80
2022/10/01 07:23:49;;;;;;;3.60;2.40;;;;;;;15.25;54.75;98246.88;6988939;28;20295;-81
2022/10/01 07:27:10;;;;;;;2.43;2.23;;;;;;;15.59;54.48;98242.25;6988150;28;20290;-81
2022/10/01 07:30:32;;;;;;;2.63;2.43;;;;;;;15.71;54.67;98270.13;7006260;28;20416;-80
2022/10/01 07:33:57;;;;;;;2.80;2.60;;;;;;;15.61;54.77;98256.41;7008851;28;20303;-80
2022/10/01 07:37:18;;;;;;;2.57;2.20;;;;;;;15.69;53.84;98232.31;7005178;28;20224;-83
2022/10/01 07:40:42;;;;;;;2.50;2.30;;;;;;;15.44;55.46;98258.31;7007940;28;20256;-81
2022/10/01 07:44:03;;;;;;;2.80;2.47;;;;;;;14.95;56.50;98261.84;7008937;28;20203;-83
2022/10/01 07:47:25;;;;;;;2.80;2.60;;;;;;;14.77;57.53;98264.78;7007161;28;20233;-82
2022/10/01 07:50:46;;;;;;;2.83;2.50;;;;;;;14.63;58.19;98249.91;7008618;28;20270;-81
2022/10/01 07:54:08;;;;;;;5.30;3.77;;;;;;;14.83;60.10;98183.22;7008549;28;20297;-82
2022/10/01 07:57:31;;;;;;;3.90;3.40;;;;;;;15.43;59.25;98257.50;7009000;28;20233;-82
2022/10/01 08:00:57;;;;;;;3.03;2.43;;;;;;;15.47;57.63;98228.78;7007885;28;20259;-81
2022/10/01 08:07:58;;;;;;;2.90;2.50;;;;;;;15.93;56.41;98244.59;7007644;28;20210;-79
2022/10/01 08:11:19;;;;;;;2.47;2.27;;;;;;;15.88;56.63;98257.31;7007037;28;20203;-83
2022/10/01 08:14:42;;;;;;;3.40;2.57;;;;;;;15.65;57.44;98262.97;7007788;28;20597;-80
2022/10/01 08:18:04;;;;;;;2.50;2.30;;;;;;;15.69;56.85;98261.41;7007107;28;20363;-80
2022/10/01 08:21:27;;;;;;;7.03;3.83;;;;;;;15.87;57.49;98267.38;7008014;28;20238;-81
2022/10/01 08:24:49;;;;;;;11.30;4.80;;;;;;;16.11;58.65;98265.25;7007109;28;20333;-80
2022/10/01 08:28:11;;;;;;;4.93;2.80;;;;;;;16.23;57.93;98255.06;7004921;28;20314;-81
2022/10/01 08:31:34;;;;;;;3.13;2.83;;;;;;;15.86;57.80;98245.88;7007500;28;20201;-80
2022/10/01 08:34:56;;;;;;;8.20;3.90;;;;;;;16.03;60.01;98282.81;7006671;28;20210;-81
2022/10/01 08:38:19;;;;;;;5.90;3.30;;;;;;;15.43;59.57;98272.97;7006376;28;20224;-80
2022/10/01 08:41:48;;;;;;;3.00;2.80;;;;;;;15.34;59.40;98288.88;7006014;28;20244;-79
2022/10/01 08:45:13;;;;;;;3.60;3.30;;;;;;;15.66;58.67;98283.66;7007627;28;20183;-77
2022/10/01 08:48:43;;;;;;;3.80;2.97;;;;;;;15.98;58.81;98299.06;7006486;28;20223;-81
2022/10/01 08:52:09;;;;;;;5.47;4.00;;;;;;;16.09;58.98;98251.88;7005965;28;20664;-81
2022/10/01 08:55:35;;;;;;;5.27;4.80;;;;;;;16.35;57.92;98283.75;7005108;28;20606;-79
2022/10/01 08:58:58;;;;;;;8.53;4.20;;;;;;;16.14;58.43;98278.31;7006106;28;20252;-79
2022/10/01 09:02:22;;;;;;;8.53;5.30;;;;;;;16.35;58.97;98272.06;7004935;28;20279;-81
2022/10/01 09:06:07;;;;;;;6.80;4.30;;;;;;;16.34;60.12;98287.53;7005973;28;20709;-79
2022/10/01 09:09:41;;;;;;;5.37;4.70;;;;;;;16.43;59.53;98277.91;7004817;28;20226;-79
2022/10/01 09:13:31;;;;;;;4.03;3.67;;;;;;;16.12;59.18;98285.91;7006557;28;20195;-79
2022/10/01 09:17:00;;;;;;;7.43;4.00;;;;;;;15.84;58.49;98237.13;7001179;28;20211;-79
2022/10/01 09:20:26;;;;;;;3.10;2.80;;;;;;;16.05;57.90;98301.59;7004611;28;20775;-82
2022/10/01 09:23:58;;;;;;;3.47;2.80;;;;;;;15.71;59.77;98290.00;7006129;28;20207;-81
2022/10/01 09:27:26;;;;;;;6.80;5.07;;;;;;;16.34;58.45;98254.91;7005977;28;20194;-82
2022/10/01 09:30:54;;;;;;;5.70;3.93;;;;;;;16.76;57.58;98269.53;7004220;28;20288;-81
2022/10/01 09:34:20;;;;;;;3.10;2.80;;;;;;;16.66;56.53;98269.44;7003157;28;20210;-81
2022/10/01 09:37:45;;;;;;;7.87;5.80;;;;;;;16.45;58.26;98286.63;6998300;28;20372;-81
2022/10/01 09:41:10;;;;;;;3.50;3.20;;;;;;;16.62;57.57;98268.31;7005749;28;20288;-81
2022/10/01 09:44:32;;;;;;;3.17;2.83;;;;;;;16.85;56.38;98283.50;7006102;28;20206;-81
2022/10/01 09:47:58;;;;;;;5.13;2.60;;;;;;;16.68;56.38;98267.28;7006295;28;20234;-81
2022/10/01 09:51:23;;;;;;;2.07;1.97;;;;;;;16.72;56.24;98301.09;7012357;28;20195;-81
2022/10/01 09:54:47;;;;;;;3.17;2.57;;;;;;;16.57;56.87;98305.56;7012484;28;20285;-82
2022/10/01 09:58:13;;;;;;;3.30;3.03;;;;;;;16.91;56.99;98296.09;7004801;28;20313;-81
2022/10/01 10:01:40;;;;;;;3.43;3.00;;;;;;;16.66;57.36;98282.22;7004777;28;20253;-81
2022/10/01 10:05:02;;;;;;;3.23;2.63;;;;;;;16.58;57.25;98285.41;7004010;28;20211;-81
2022/10/01 10:08:27;;;;;;;14.00;7.77;;;;;;;16.93;57.07;98307.56;7004736;28;20288;-81
2022/10/01 10:11:49;;;;;;;128.93;42.17;;;;;;;16.67;58.39;98306.47;7005645;28;20191;-81
2022/10/01 10:15:16;;;;;;;42.33;14.50;;;;;;;16.76;58.95;98307.66;7005428;28;20300;-81
2022/10/01 10:18:39;;;;;;;27.97;10.10;;;;;;;17.16;58.14;98313.50;7004746;28;20234;-81
2022/10/01 10:22:11;;;;;;;4.00;2.93;;;;;;;16.94;57.02;98314.66;7004967;28;20310;-81
2022/10/01 10:25:32;;;;;;;18.07;11.20;;;;;;;16.92;57.67;98297.75;6999869;28;20215;-81
2022/10/01 10:28:55;;;;;;;5.30;4.60;;;;;;;17.05;57.84;98332.75;6975986;28;20306;-81
2022/10/01 10:32:23;;;;;;;3.00;2.70;;;;;;;16.89;57.63;98306.41;6976152;28;20199;-81
2022/10/01 10:35:44;;;;;;;4.23;3.17;;;;;;;16.85;58.16;98319.72;6988610;28;20203;-81
2022/10/01 10:39:10;;;;;;;5.37;3.80;;;;;;;17.30;57.27;98320.19;7005493;28;20224;-82
2022/10/01 10:42:32;;;;;;;2.67;2.47;;;;;;;17.06;57.73;98323.47;7000258;28;20231;-81
2022/10/01 10:45:55;;;;;;;4.50;4.10;;;;;;;16.70;58.75;98288.81;6987056;28;20212;-81
2022/10/01 10:49:21;;;;;;;4.17;3.73;;;;;;;17.31;58.40;98304.63;6976482;28;20227;-81
2022/10/01 10:52:42;;;;;;;3.90;2.93;;;;;;;17.09;58.34;98299.28;6977093;28;20248;-81
2022/10/01 10:56:06;;;;;;;3.43;2.20;;;;;;;17.14;57.03;98268.53;6976753;28;20350;-81
2022/10/01 10:59:30;;;;;;;2.27;2.07;;;;;;;16.51;58.62;98291.03;6974362;28;20243;-81
2022/10/01 11:02:54;;;;;;;2.37;2.17;;;;;;;17.12;58.18;98303.38;6975678;28;20225;-81
2022/10/01 11:06:18;;;;;;;2.17;2.07;;;;;;;16.93;57.66;98193.19;6975582;28;20261;-81
2022/10/01 11:09:54;;;;;;;4.13;2.10;;;;;;;17.80;56.42;98276.94;6992540;28;20586;-81
2022/10/01 11:13:28;;;;;;;2.53;2.33;;;;;;;17.82;56.77;98257.59;7003481;28;20660;-81
2022/10/01 11:17:00;;;;;;;1.83;1.73;;;;;;;16.65;59.70;98269.69;7001065;28;20197;-81
2022/10/01 11:20:32;;;;;;;2.10;1.90;;;;;;;16.55;61.40;98264.13;6976065;28;20258;-81
2022/10/01 11:24:07;;;;;;;1.63;1.53;;;;;;;17.05;59.00;98242.84;6977244;28;20556;-81
2022/10/01 11:27:35;;;;;;;2.00;1.90;;;;;;;17.48;59.02;98261.75;6976539;28;20322;-82
2022/10/01 11:31:05;;;;;;;1.73;1.63;;;;;;;17.20;59.14;98279.22;6975710;28;20231;-82
2022/10/01 11:34:40;;;;;;;1.77;1.63;;;;;;;16.37;60.60;98256.28;6975988;28;20193;-81
2022/10/01 11:38:40;;;;;;;1.70;1.60;;;;;;;16.94;59.70;98258.28;6975693;28;20230;-78
2022/10/01 11:42:06;;;;;;;1.90;1.80;;;;;;;16.32;61.20;98273.38;6976706;28;20304;-82
2022/10/01 11:45:30;;;;;;;1.80;1.70;;;;;;;16.67;60.30;98265.63;6977582;28;20189;-81
2022/10/01 11:48:56;;;;;;;1.70;1.60;;;;;;;16.38;61.42;98261.50;6977384;28;20249;-81
2022/10/01 11:52:28;;;;;;;7.87;4.13;;;;;;;16.79;60.93;98281.81;6977258;28;20209;-80
2022/10/01 11:59:38;;;;;;;1.67;1.57;;;;;;;16.53;61.23;98299.78;6989131;28;20227;-81
2022/10/01 12:03:02;;;;;;;1.70;1.60;;;;;;;16.28;61.75;98306.78;7005116;28;20272;-80
2022/10/01 12:06:27;;;;;;;1.77;1.67;;;;;;;16.56;60.84;98280.22;7004595;28;20261;-80
2022/10/01 12:09:56;;;;;;;1.60;1.50;;;;;;;17.02;60.25;98308.72;7002501;28;20220;-81
2022/10/01 12:13:22;;;;;;;1.57;1.37;;;;;;;16.72;59.92;98289.38;7007227;28;20205;-80
2022/10/01 12:16:51;;;;;;;1.67;1.57;;;;;;;16.41;60.61;98309.16;7007148;28;20278;-80
2022/10/01 12:20:19;;;;;;;1.60;1.50;;;;;;;16.55;61.07;98307.69;7006735;28;20227;-80
2022/10/01 12:23:45;;;;;;;1.60;1.50;;;;;;;16.62;60.74;98311.03;7007592;28;20233;-80
2022/10/01 12:27:19;;;;;;;1.60;1.47;;;;;;;16.89;60.46;98314.59;7007730;28;20779;-80
2022/10/01 12:30:46;;;;;;;1.90;1.80;;;;;;;16.45;61.68;98305.66;7007346;28;20284;-81
2022/10/01 12:34:14;;;;;;;1.20;1.20;;;;;;;16.87;60.72;98319.47;7010593;28;20200;-80
2022/10/01 12:37:44;;;;;;;1.60;1.50;;;;;;;17.43;58.84;98330.66;7011318;28;20350;-80
2022/10/01 12:41:15;;;;;;;2.00;1.60;;;;;;;16.94;60.32;98340.00;7008056;28;20750;-81
2022/10/01 12:44:48;;;;;;;1.20;1.13;;;;;;;17.28;59.38;98335.94;7008675;28;20186;-81
2022/10/01 12:48:15;;;;;;;1.20;1.20;;;;;;;17.12;59.63;98314.28;7007472;28;20715;-81
2022/10/01 12:51:44;;;;;;;1.33;1.30;;;;;;;16.73;60.89;98332.66;7009180;28;20182;-80
2022/10/01 12:55:19;;;;;;;1.37;1.27;;;;;;;17.57;58.96;98331.06;7008227;28;20246;-81
2022/10/01 12:58:50;;;;;;;1.23;1.23;;;;;;;17.60;57.98;98336.81;7006602;28;20352;-81
2022/10/01 13:02:27;;;;;;;1.20;1.07;;;;;;;18.18;57.08;98335.81;7006542;28;20269;-81
2022/10/01 13:05:58;;;;;;;1.13;1.03;;;;;;;18.50;56.45;98345.56;7007628;28;20221;-81
2022/10/01 13:09:26;;;;;;;1.47;1.37;;;;;;;18.80;55.61;98342.94;7007327;28;20313;-81
2022/10/01 13:13:00;;;;;;;0.90;0.90;;;;;;;18.36;56.23;98336.22;7008545;28;20226;-81
2022/10/01 13:16:27;;;;;;;1.10;1.10;;;;;;;18.70;55.42;98345.63;7009190;28;20215;-83
2022/10/01 13:19:52;;;;;;;1.10;1.10;;;;;;;18.89;55.31;98335.03;7007613;28;20218;-79
2022/10/01 13:23:19;;;;;;;0.80;0.80;;;;;;;18.45;55.43;98265.56;7008243;28;20302;-78
2022/10/01 13:26:47;;;;;;;1.23;1.03;;;;;;;18.82;54.26;98324.34;7016746;28;20197;-80
2022/10/01 13:30:16;;;;;;;1.07;1.00;;;;;;;18.76;53.76;98313.69;7010299;28;20254;-81
2022/10/01 13:33:38;;;;;;;1.10;1.10;;;;;;;18.83;54.68;98333.38;7008621;28;20346;-80
2022/10/01 13:37:10;;;;;;;1.00;1.00;;;;;;;18.33;55.56;98330.47;7008803;28;20210;-81
2022/10/01 13:40:33;;;;;;;0.90;0.90;;;;;;;18.56;55.02;98330.00;7001365;28;20317;-80
2022/10/01 13:43:58;;;;;;;1.23;1.20;;;;;;;18.60;54.77;98331.13;7005276;28;20292;-79
2022/10/01 13:47:20;;;;;;;1.20;1.20;;;;;;;19.25;54.30;98334.03;7006810;28;20205;-79
2022/10/01 13:50:54;;;;;;;1.50;1.40;;;;;;;19.54;52.99;98327.78;7006820;28;20297;-79
2022/10/01 13:54:24;;;;;;;0.90;0.90;;;;;;;19.44;52.67;98333.25;7004744;28;20295;-78
2022/10/01 13:57:46;;;;;;;1.03;0.93;;;;;;;18.77;54.37;98296.22;7003586;28;20226;-79
2022/10/01 14:01:28;;;;;;;1.10;1.10;;;;;;;19.02;53.63;98320.84;7002696;28;20253;-78
2022/10/01 14:04:50;;;;;;;1.27;1.17;;;;;;;19.33;53.05;98322.59;7003917;28;20292;-79
2022/10/01 14:08:16;;;;;;;1.87;1.30;;;;;;;19.33;52.82;98325.31;7003581;28;20706;-78
2022/10/01 14:19:00;;;;;;;1.60;1.50;;;;;;;19.80;52.22;98331.31;7003405;28;20226;-79
2022/10/01 14:22:52;;;;;;;1.23;1.23;;;;;;;19.72;51.95;98343.63;7004749;28;20768;-78
2022/10/01 14:26:20;;;;;;;2.27;1.40;;;;;;;19.34;52.09;98303.16;6952814;28;20295;-79
2022/10/01 14:29:49;;;;;;;1.10;1.10;;;;;;;18.84;53.26;98324.94;6975241;28;20588;-79
2022/10/01 14:33:41;;;;;;;2.53;1.17;;;;;;;19.25;52.55;98328.56;6975438;28;20331;-79
2022/10/01 14:37:06;;;;;;;2.03;1.00;;;;;;;19.53;52.21;98341.72;6976371;28;20293;-79
2022/10/01 14:40:36;;;;;;;1.20;1.20;;;;;;;19.96;50.70;98341.97;6987398;28;20271;-79
2022/10/01 14:43:57;;;;;;;3.40;1.37;;;;;;;19.70;51.50;98354.00;7005018;28;20288;-80
2022/10/01 14:47:20;;;;;;;3.33;1.30;;;;;;;19.86;50.12;98324.75;7008098;28;20238;-79
2022/10/01 14:50:46;;;;;;;1.27;1.27;;;;;;;19.88;50.04;98336.22;7004501;28;20288;-80
2022/10/01 14:54:11;;;;;;;2.87;1.30;;;;;;;19.27;51.96;98346.34;7004212;28;20213;-79
2022/10/01 14:57:34;;;;;;;1.10;1.10;;;;;;;19.80;51.03;98339.53;7002647;28;20312;-81
2022/10/01 15:00:57;;;;;;;1.30;1.20;;;;;;;20.09;50.29;98332.38;7002591;28;20206;-81
2022/10/01 15:04:19;;;;;;;1.07;1.07;;;;;;;20.05;49.96;98350.44;7003425;28;20372;-80
2022/10/01 15:07:45;;;;;;;1.87;1.00;;;;;;;20.43;49.85;98353.38;7003549;28;20305;-80
2022/10/01 15:11:13;;;;;;;1.83;1.13;;;;;;;20.16;50.05;98355.63;7002942;28;20335;-80
2022/10/01 15:14:35;;;;;;;1.27;1.00;;;;;;;19.96;50.23;98346.59;7003304;28;20327;-81
2022/10/01 15:17:57;;;;;;;1.53;1.43;;;;;;;19.93;50.16;98350.72;7001039;28;20803;-79
2022/10/01 15:21:22;;;;;;;1.50;1.40;;;;;;;19.49;50.61;98340.63;7002470;28;20293;-78
2022/10/01 15:24:45;;;;;;;1.00;1.00;;;;;;;19.23;50.97;98350.69;7002271;28;20204;-80
2022/10/01 15:28:14;;;;;;;2.27;1.80;;;;;;;19.41;51.15;98360.31;7002228;28;20217;-80
2022/10/01 15:31:36;;;;;;;1.10;1.10;;;;;;;18.87;51.38;98378.19;7002870;28;20576;-80
2022/10/01 15:35:00;;;;;;;1.10;1.03;;;;;;;19.40;50.38;98375.88;7003140;28;20213;-79
2022/10/01 15:38:23;;;;;;;1.07;1.07;;;;;;;19.50;50.26;98369.59;7003632;28;20225;-80
2022/10/01 15:41:51;;;;;;;1.50;1.37;;;;;;;19.28;50.21;98382.72;6996715;28;20326;-80
2022/10/01 15:45:24;;;;;;;1.10;1.10;;;;;;;18.74;52.32;98360.41;7007882;28;20280;-80
2022/10/01 15:48:46;;;;;;;2.57;1.97;;;;;;;18.85;51.77;98372.16;7003824;28;20221;-80
2022/10/01 15:55:56;;;;;;;20.83;9.00;;;;;;;19.16;50.81;98391.13;6981256;28;20585;-80
2022/10/01 15:59:19;;;;;;;16.63;12.43;;;;;;;19.26;50.54;98385.72;6985876;28;20222;-80
2022/10/01 16:02:44;;;;;;;6.97;4.67;;;;;;;19.42;49.97;98408.44;6981182;28;20265;-81
2022/10/01 16:06:08;;;;;;;18.57;10.33;;;;;;;19.41;51.24;98410.31;7001835;28;20246;-80
2022/10/01 16:09:30;;;;;;;2.70;2.43;;;;;;;19.52;50.57;98397.50;7005846;28;20260;-80
2022/10/01 16:12:51;;;;;;;2.57;1.93;;;;;;;19.84;49.74;98412.56;7010147;28;20193;-82
2022/10/01 16:16:26;;;;;;;1.50;1.40;;;;;;;19.49;50.60;98415.28;7011800;28;20251;-80
2022/10/01 16:19:50;;;;;;;2.67;1.70;;;;;;;19.87;50.10;98416.69;7009470;28;20843;-80
2022/10/01 16:23:37;;;;;;;3.07;1.30;;;;;;;19.85;50.65;98427.06;6981135;28;20629;-80
2022/10/01 16:26:59;;;;;;;2.97;1.70;;;;;;;19.91;50.89;98426.78;6979870;28;20341;-80